Chichester, NY (12416)

1:08 PM EST on November 21, 2014 (GMT -0500)
Willow, NY | Change Station
CLOSE
Current Station
Personal Weather Station
Location: Willow, NY
Elevation: 1033 ft
Nearby Weather Stations

Elev 1033 ft 42.07 °N, 74.22 °W | Updated 5 minutes ago

Overcast
Overcast
29.2 °F
Feels Like 22 °F
N
7.0
Wind Variable Wind from SE
Gusts 14.0 mph

Today
High -- | Low -- °F
--% Chance of Precip.
Yesterday
High -- | Low -- °F
Precip. -- in
6:54 AM 4:31 PM
Waning Crescent, 1% visible
Pressure 30.27 in
Visibility 10.0 miles
Clouds Overcast 6000 ft
Windchill 22 °F
Dew Point 15 °F
Humidity 55%
Rainfall 0.00 in
Snow Depth Not available.
UV 1 out of 12
Pollen .10 out of 12
Air Quality Not available.
Flu Activity Not available.
METAR KPOU 211753Z 31010KT 10SM OVC060 01/M12 A3027 RMK AO2 SLP250 T00111117 10017 21039 51010

More Conditions Fewer Conditions

Pressure 30.27 in
Visibility 10.0 miles
Clouds Overcast 6000 ft
Windchill 22 °F
Dew Point 15 °F
Humidity 55%
Rainfall 0.00 in
Snow Depth Not available.
UV 1 out of 12
Pollen .10 out of 12
Air Quality Not available.
Flu Activity Not available.
METAR KPOU 211753Z 31010KT 10SM OVC060 01/M12 A3027 RMK AO2 SLP250 T00111117 10017 21039 51010

More Conditions Fewer Conditions

10-Day Weather Forecast

Almanac

Astronomy

Nov. 21, 2014 Rise Set
Actual Time
Civil Twilight
Nautical Twilight
Astronomical Twilight
Moon
Length of Visible Light
Length of Day
Tomorrow will be .
, % of the Moon is Illuminated

Today's Extremes

State Highs State Lows

Community

WunderPhotos

Upload Photos

1,772,690 photos uploaded!

WunderBlogs® & News

Nearby

Air Quality

  Air Quality AQ Index Pollutant
Not available.

Snow Depth

Station Depth Elevation

Earthquake Activity

City Distance Mag. Time & Date
Minimum magnitude displayed is 2.5.

Coastal Water Temperatures

Place Temperature

Nearby Weather Stations